Time;durP1;ratioP1;P1;durP2;ratioP2;P2;SDS_P1;SDS_P2;PMS_P1;PMS_P2;Temp;Humidity;BMP_temperature;BMP_pressure;BME280_temperature;BME280_humidity;BME280_pressure;Samples;Min_cycle;Max_cycle;Signal;HPM_P1;HPM_P2
2021/11/23 00:02:26;;;;;;;5.00;3.97;;;4.10;99.90;;;;;;5017110;28;20832;-71
2021/11/23 00:04:51;;;;;;;3.87;2.90;;;4.10;99.90;;;;;;5013923;28;20546;-73
2021/11/23 00:07:19;;;;;;;5.23;3.30;;;4.10;99.90;;;;;;5017227;28;20447;-73
2021/11/23 00:09:45;;;;;;;6.00;3.40;;;4.10;99.90;;;;;;5014329;28;20546;-72
2021/11/23 00:12:11;;;;;;;2.70;2.47;;;4.10;99.90;;;;;;5013991;28;20239;-72
2021/11/23 00:14:37;;;;;;;4.90;3.17;;;4.10;99.90;;;;;;5030779;28;20251;-71
2021/11/23 00:17:03;;;;;;;3.20;2.67;;;4.10;99.90;;;;;;5006103;28;20479;-73
2021/11/23 00:19:29;;;;;;;4.63;3.37;;;4.10;99.90;;;;;;5031694;28;20228;-73
2021/11/23 00:21:55;;;;;;;4.20;2.63;;;4.10;99.90;;;;;;5012936;28;20474;-72
2021/11/23 00:24:20;;;;;;;2.87;2.10;;;4.10;99.90;;;;;;5013329;28;20217;-72
2021/11/23 00:26:46;;;;;;;3.70;2.40;;;4.10;99.90;;;;;;5006755;28;20356;-72
2021/11/23 00:29:12;;;;;;;3.00;2.17;;;4.00;99.90;;;;;;4997157;28;20227;-72
2021/11/23 00:31:38;;;;;;;9.13;2.57;;;4.00;99.90;;;;;;5000767;28;20221;-71
2021/11/23 00:34:03;;;;;;;3.50;2.43;;;4.10;99.90;;;;;;5030760;28;21054;-72
2021/11/23 00:36:30;;;;;;;3.27;2.50;;;4.00;99.90;;;;;;5018563;28;20216;-72
2021/11/23 00:38:56;;;;;;;3.43;2.40;;;4.10;99.90;;;;;;5030636;28;20228;-73
2021/11/23 00:41:23;;;;;;;4.80;2.40;;;4.10;99.90;;;;;;5031070;28;20447;-73
2021/11/23 00:43:49;;;;;;;3.07;2.60;;;4.10;99.90;;;;;;4997383;28;20534;-72
2021/11/23 00:46:15;;;;;;;3.00;2.70;;;4.10;99.90;;;;;;5012957;28;20530;-72
2021/11/23 00:48:41;;;;;;;3.83;2.60;;;4.10;99.90;;;;;;5031192;28;20231;-73
2021/11/23 00:51:07;;;;;;;6.87;3.00;;;4.10;99.90;;;;;;5030170;28;20470;-70
2021/11/23 00:53:34;;;;;;;7.13;3.43;;;4.00;99.90;;;;;;5031803;28;20247;-71
2021/11/23 00:56:06;;;;;;;5.20;3.80;;;4.00;99.90;;;;;;5003572;28;20252;-73
2021/11/23 00:58:33;;;;;;;5.40;3.10;;;4.00;99.90;;;;;;5013439;28;20470;-72
2021/11/23 01:00:59;;;;;;;3.70;2.90;;;4.00;99.90;;;;;;5044556;28;20482;-71
2021/11/23 01:03:27;;;;;;;4.00;2.63;;;4.00;99.90;;;;;;5012347;28;20471;-72
2021/11/23 01:05:54;;;;;;;2.00;1.80;;;4.00;99.90;;;;;;5013004;28;20452;-72
2021/11/23 01:08:20;;;;;;;3.43;2.37;;;4.00;99.90;;;;;;4997178;28;20447;-72
2021/11/23 01:10:46;;;;;;;3.00;1.83;;;3.90;99.90;;;;;;5025923;28;21042;-71
2021/11/23 01:13:12;;;;;;;2.77;1.63;;;3.90;99.90;;;;;;5012581;28;20772;-72
2021/11/23 01:15:38;;;;;;;2.20;1.90;;;3.90;99.90;;;;;;5013253;28;20255;-72
2021/11/23 01:18:04;;;;;;;1.97;1.80;;;3.90;99.90;;;;;;5005770;28;20522;-72
2021/11/23 01:20:31;;;;;;;1.63;1.50;;;3.90;99.90;;;;;;5011035;28;20455;-72
2021/11/23 01:22:57;;;;;;;1.50;1.30;;;3.80;99.90;;;;;;5001658;28;20454;-71
2021/11/23 01:25:24;;;;;;;1.43;1.33;;;3.90;99.90;;;;;;5032576;28;20526;-72
2021/11/23 01:27:50;;;;;;;7.13;1.67;;;3.90;99.90;;;;;;5037021;28;20530;-72
2021/11/23 01:30:16;;;;;;;1.50;1.40;;;3.80;99.90;;;;;;5030646;28;20561;-73
2021/11/23 01:32:42;;;;;;;1.47;0.80;;;3.80;99.90;;;;;;5029680;28;20236;-72
2021/11/23 01:35:12;;;;;;;1.53;1.37;;;3.80;99.90;;;;;;5029635;28;20538;-72
2021/11/23 01:37:39;;;;;;;2.90;1.50;;;3.80;99.90;;;;;;5030493;28;20478;-72
2021/11/23 01:40:05;;;;;;;5.17;1.30;;;3.80;99.90;;;;;;5012833;28;20477;-71
2021/11/23 01:42:31;;;;;;;1.33;1.23;;;3.80;99.90;;;;;;5007462;28;20478;-72
2021/11/23 01:44:57;;;;;;;3.67;1.60;;;3.80;99.90;;;;;;5048455;28;21004;-72
2021/11/23 01:47:22;;;;;;;1.50;1.33;;;3.70;99.90;;;;;;5000210;28;20209;-72
2021/11/23 01:49:48;;;;;;;1.20;1.10;;;3.70;99.90;;;;;;5023603;28;20225;-72
2021/11/23 01:52:14;;;;;;;1.03;1.00;;;3.70;99.90;;;;;;5028934;28;20223;-72
2021/11/23 01:54:41;;;;;;;3.20;1.20;;;3.60;99.90;;;;;;5012084;28;20269;-72
2021/11/23 01:57:06;;;;;;;1.70;1.20;;;3.70;99.90;;;;;;5029673;28;20216;-73
2021/11/23 01:59:32;;;;;;;1.63;1.30;;;3.60;99.90;;;;;;4996245;28;21014;-72
2021/11/23 02:01:58;;;;;;;1.33;1.10;;;3.60;99.90;;;;;;5034983;28;20220;-72
2021/11/23 02:04:24;;;;;;;3.67;1.37;;;3.70;99.90;;;;;;5026228;28;20266;-73
2021/11/23 02:06:50;;;;;;;1.07;0.97;;;3.60;99.90;;;;;;4995243;28;20976;-72
2021/11/23 02:09:16;;;;;;;1.00;0.90;;;3.60;99.90;;;;;;4995048;28;20224;-72
2021/11/23 02:11:42;;;;;;;1.20;1.10;;;3.60;99.90;;;;;;5012092;28;20236;-71
2021/11/23 02:14:08;;;;;;;1.63;1.53;;;3.70;99.90;;;;;;5029232;28;20259;-72
2021/11/23 02:16:34;;;;;;;1.87;1.10;;;3.70;99.90;;;;;;5030177;28;20458;-73
2021/11/23 02:19:00;;;;;;;1.43;1.40;;;3.60;99.90;;;;;;5015383;28;21035;-71
2021/11/23 02:21:26;;;;;;;1.30;1.20;;;3.70;99.90;;;;;;4998776;28;20452;-72
2021/11/23 02:23:52;;;;;;;1.20;1.10;;;3.70;99.90;;;;;;4995332;28;20829;-71
2021/11/23 02:26:18;;;;;;;1.70;1.37;;;3.60;99.90;;;;;;5011733;28;20455;-71
2021/11/23 02:28:43;;;;;;;4.30;1.37;;;3.60;99.90;;;;;;5022377;28;20224;-73
2021/11/23 02:31:10;;;;;;;1.10;1.00;;;3.60;99.90;;;;;;5012304;28;20681;-71
2021/11/23 02:33:37;;;;;;;1.47;1.30;;;3.60;99.90;;;;;;5027692;28;20243;-71
2021/11/23 02:36:07;;;;;;;1.03;0.93;;;3.50;99.90;;;;;;5002710;28;20863;-72
2021/11/23 02:38:34;;;;;;;1.00;0.90;;;3.60;99.90;;;;;;4995771;28;20535;-72
2021/11/23 02:41:04;;;;;;;1.07;1.07;;;3.50;99.90;;;;;;5011816;28;20451;-71
2021/11/23 02:43:30;;;;;;;2.40;1.63;;;3.50;99.90;;;;;;5012016;28;20460;-72
2021/11/23 02:45:57;;;;;;;1.40;1.20;;;3.40;99.90;;;;;;4997049;28;20534;-70
2021/11/23 02:48:23;;;;;;;1.87;1.03;;;3.50;99.90;;;;;;5016004;28;20493;-72
2021/11/23 02:51:14;;;;;;;0.90;0.87;;;3.50;99.90;;;;;;5033185;28;20479;-73
2021/11/23 02:53:41;;;;;;;1.73;1.10;;;3.50;99.90;;;;;;5035617;28;20534;-72
2021/11/23 02:56:07;;;;;;;1.10;1.10;;;3.40;99.90;;;;;;5016157;28;20521;-72
2021/11/23 02:58:33;;;;;;;1.10;1.00;;;3.40;99.90;;;;;;5017427;28;20494;-72
2021/11/23 03:01:05;;;;;;;0.97;0.93;;;3.40;99.90;;;;;;5019187;28;20303;-71
2021/11/23 03:03:31;;;;;;;1.53;1.43;;;3.40;99.90;;;;;;5015867;28;20467;-72
2021/11/23 03:05:57;;;;;;;1.30;1.20;;;3.40;99.90;;;;;;4999005;28;20506;-71
2021/11/23 03:08:23;;;;;;;1.53;1.00;;;3.40;99.90;;;;;;5014930;28;20451;-72
2021/11/23 03:10:49;;;;;;;1.80;1.37;;;3.30;99.90;;;;;;5010653;28;20500;-73
2021/11/23 03:13:15;;;;;;;1.77;1.27;;;3.30;99.90;;;;;;5029004;28;20470;-72
2021/11/23 03:15:41;;;;;;;1.50;1.40;;;3.30;99.90;;;;;;5015390;28;20459;-72
2021/11/23 03:18:09;;;;;;;0.90;0.90;;;3.30;99.90;;;;;;5015106;28;20234;-71
2021/11/23 03:20:39;;;;;;;1.73;1.63;;;3.30;99.90;;;;;;5032735;28;20213;-73
2021/11/23 03:23:06;;;;;;;1.90;1.20;;;3.30;99.90;;;;;;5006127;28;20447;-72
2021/11/23 03:25:33;;;;;;;2.90;1.37;;;3.30;99.90;;;;;;5006618;28;20475;-72
2021/11/23 03:28:03;;;;;;;1.63;1.10;;;3.20;99.90;;;;;;5014425;28;20684;-72
2021/11/23 03:30:31;;;;;;;1.10;1.00;;;3.20;99.90;;;;;;5014702;28;20435;-72
2021/11/23 03:32:58;;;;;;;0.97;0.87;;;3.20;99.90;;;;;;5015196;28;20455;-72
2021/11/23 03:35:28;;;;;;;1.50;1.23;;;3.10;99.90;;;;;;5010208;28;20478;-71
2021/11/23 03:37:55;;;;;;;1.50;0.87;;;3.20;99.90;;;;;;4997844;28;20520;-73
2021/11/23 03:40:22;;;;;;;1.50;1.40;;;3.10;99.90;;;;;;5017448;28;20923;-72
2021/11/23 03:42:49;;;;;;;0.70;0.70;;;3.10;99.90;;;;;;5004010;28;20450;-73
2021/11/23 03:45:15;;;;;;;1.37;1.27;;;3.10;99.90;;;;;;4997922;28;21409;-72
2021/11/23 03:47:41;;;;;;;1.37;1.10;;;3.10;99.90;;;;;;4999405;28;21055;-72
2021/11/23 03:50:11;;;;;;;1.70;1.00;;;3.10;99.90;;;;;;4978778;28;20460;-72
2021/11/23 03:52:37;;;;;;;1.47;1.37;;;3.10;99.90;;;;;;5044381;28;20442;-72
2021/11/23 03:55:05;;;;;;;1.00;0.80;;;3.10;99.90;;;;;;5019784;28;20930;-71
2021/11/23 03:57:31;;;;;;;1.23;1.13;;;3.10;99.90;;;;;;5032004;28;20478;-72
2021/11/23 03:59:56;;;;;;;3.80;1.20;;;3.10;99.90;;;;;;5014162;28;20483;-72
2021/11/23 04:02:24;;;;;;;2.03;1.30;;;3.00;99.90;;;;;;5009934;28;20212;-71
2021/11/23 04:04:50;;;;;;;1.77;1.67;;;3.10;99.90;;;;;;5018929;28;20223;-72
2021/11/23 04:07:16;;;;;;;1.87;1.30;;;3.10;99.90;;;;;;5014698;28;20455;-71
2021/11/23 04:09:43;;;;;;;2.53;1.63;;;3.00;99.90;;;;;;4998139;28;20645;-72
2021/11/23 04:12:10;;;;;;;2.10;1.50;;;3.00;99.90;;;;;;5013568;28;20491;-72
2021/11/23 04:14:37;;;;;;;1.40;1.30;;;3.00;99.90;;;;;;5008409;28;20225;-72
2021/11/23 04:17:03;;;;;;;1.70;1.60;;;3.00;99.90;;;;;;5023641;28;20469;-71
2021/11/23 04:19:29;;;;;;;1.37;1.23;;;3.00;99.90;;;;;;5031775;28;20471;-72
2021/11/23 04:21:58;;;;;;;4.87;1.40;;;3.00;99.90;;;;;;5013918;28;20470;-73
2021/11/23 04:24:24;;;;;;;1.93;1.30;;;3.00;99.90;;;;;;5013802;28;20283;-73
2021/11/23 04:26:50;;;;;;;1.47;1.37;;;2.90;99.90;;;;;;5013254;28;20452;-73
2021/11/23 04:29:16;;;;;;;1.63;1.53;;;2.80;99.90;;;;;;5008640;28;20443;-72
2021/11/23 04:31:42;;;;;;;1.77;1.43;;;2.80;99.90;;;;;;5010851;28;20548;-72
2021/11/23 04:34:07;;;;;;;1.57;1.47;;;2.80;99.90;;;;;;5011042;28;20236;-72
2021/11/23 04:36:35;;;;;;;1.50;1.40;;;2.90;99.90;;;;;;5020730;28;20358;-72
2021/11/23 04:39:03;;;;;;;1.43;1.33;;;2.90;99.90;;;;;;5019990;28;20232;-71
2021/11/23 04:41:29;;;;;;;2.97;1.77;;;2.90;99.90;;;;;;4994705;28;20449;-72
2021/11/23 04:43:55;;;;;;;1.93;1.10;;;2.90;99.90;;;;;;5012880;28;20471;-70
2021/11/23 04:46:21;;;;;;;1.33;1.23;;;2.80;99.90;;;;;;4997649;28;20470;-73
2021/11/23 04:48:47;;;;;;;1.73;1.60;;;2.80;99.90;;;;;;5005943;28;20455;-72
2021/11/23 04:51:13;;;;;;;2.40;1.43;;;2.80;99.90;;;;;;5016091;28;20667;-72
2021/11/23 04:53:39;;;;;;;2.57;1.60;;;2.70;99.90;;;;;;5042918;28;20490;-72
2021/11/23 04:56:05;;;;;;;1.57;1.40;;;2.70;99.90;;;;;;5012656;28;20952;-72
2021/11/23 04:58:30;;;;;;;2.90;1.43;;;2.70;99.90;;;;;;5005976;28;20233;-72
2021/11/23 05:00:58;;;;;;;1.33;1.23;;;2.70;99.90;;;;;;4977327;28;20236;-72
2021/11/23 05:03:24;;;;;;;2.20;1.90;;;2.70;99.90;;;;;;5010898;28;20221;-72
2021/11/23 05:05:51;;;;;;;1.70;1.60;;;2.70;99.90;;;;;;4996670;28;20456;-72
2021/11/23 05:08:17;;;;;;;1.87;1.73;;;2.70;99.90;;;;;;5004017;28;20442;-72
2021/11/23 05:10:42;;;;;;;5.10;1.80;;;2.70;99.90;;;;;;5019248;28;20486;-72
2021/11/23 05:13:08;;;;;;;1.93;1.73;;;2.70;99.90;;;;;;5029783;28;20227;-73
2021/11/23 05:15:34;;;;;;;2.47;2.13;;;2.70;99.90;;;;;;5019586;28;20212;-71
2021/11/23 05:18:00;;;;;;;2.73;2.33;;;2.60;99.90;;;;;;5030230;28;20478;-73
2021/11/23 05:20:26;;;;;;;3.53;2.63;;;2.70;99.90;;;;;;4996818;28;20219;-73
2021/11/23 05:22:51;;;;;;;2.60;2.40;;;2.70;99.90;;;;;;4995554;28;20213;-73
2021/11/23 05:25:18;;;;;;;2.87;2.60;;;2.70;99.90;;;;;;5029734;28;20217;-73
2021/11/23 05:27:43;;;;;;;4.70;2.40;;;2.60;99.90;;;;;;5013097;28;20512;-73
2021/11/23 05:30:11;;;;;;;4.67;2.77;;;2.60;99.90;;;;;;5030324;28;20371;-72
2021/11/23 05:32:38;;;;;;;2.23;1.90;;;2.60;99.90;;;;;;5024848;28;20220;-73
2021/11/23 05:35:04;;;;;;;3.20;2.20;;;2.60;99.90;;;;;;5029613;28;20478;-73
2021/11/23 05:37:30;;;;;;;3.07;2.73;;;2.60;99.90;;;;;;5016348;28;20646;-72
2021/11/23 05:39:56;;;;;;;3.37;2.90;;;2.60;99.90;;;;;;5030044;28;20459;-73
2021/11/23 05:42:22;;;;;;;2.73;2.10;;;2.60;99.90;;;;;;5012345;28;20482;-72
2021/11/23 05:44:48;;;;;;;3.23;2.10;;;2.60;99.90;;;;;;5007111;28;20538;-73
2021/11/23 05:47:13;;;;;;;5.30;2.67;;;2.60;99.90;;;;;;4998234;28;20239;-72
2021/11/23 05:49:39;;;;;;;2.23;2.03;;;2.60;99.90;;;;;;5016023;28;20274;-72
2021/11/23 05:52:06;;;;;;;1.87;1.77;;;2.60;99.90;;;;;;5029925;28;20621;-73
2021/11/23 05:54:31;;;;;;;2.00;1.63;;;2.60;99.90;;;;;;4999411;28;20537;-72
2021/11/23 05:56:57;;;;;;;2.40;2.03;;;2.60;99.90;;;;;;5011999;28;20456;-73
2021/11/23 05:59:23;;;;;;;2.50;2.17;;;2.60;99.90;;;;;;4996518;28;20225;-73
2021/11/23 06:01:48;;;;;;;3.93;2.03;;;2.50;99.90;;;;;;5010613;28;20231;-72
2021/11/23 06:04:14;;;;;;;1.80;1.70;;;2.60;99.90;;;;;;4995743;28;20231;-74
2021/11/23 06:06:40;;;;;;;3.70;2.43;;;2.60;99.90;;;;;;5012229;28;20223;-73
2021/11/23 06:09:06;;;;;;;2.90;2.20;;;2.50;99.90;;;;;;5007713;28;20275;-71
2021/11/23 06:11:33;;;;;;;2.27;2.07;;;2.50;99.90;;;;;;5004598;28;20220;-73
2021/11/23 06:13:58;;;;;;;2.67;1.63;;;2.50;99.90;;;;;;5006883;28;20231;-72
2021/11/23 06:16:24;;;;;;;3.87;2.60;;;2.50;99.90;;;;;;4995605;28;20451;-73
2021/11/23 06:18:50;;;;;;;1.90;1.73;;;2.50;99.90;;;;;;5026451;28;20262;-73
2021/11/23 06:21:16;;;;;;;3.53;1.70;;;2.40;99.90;;;;;;5025497;28;20228;-71
2021/11/23 06:23:42;;;;;;;2.10;1.80;;;2.40;99.90;;;;;;4998337;28;20224;-72
2021/11/23 06:26:08;;;;;;;4.77;2.63;;;2.40;99.90;;;;;;5015761;28;20220;-72
2021/11/23 06:28:34;;;;;;;4.30;3.23;;;2.40;99.90;;;;;;5017645;28;20501;-73
2021/11/23 06:31:00;;;;;;;3.43;3.17;;;2.40;99.90;;;;;;5011641;28;20468;-71
2021/11/23 06:33:25;;;;;;;3.40;3.07;;;2.40;99.90;;;;;;4992876;28;20456;-71
2021/11/23 06:35:51;;;;;;;3.33;2.90;;;2.40;99.90;;;;;;5015532;28;20282;-72
2021/11/23 06:38:17;;;;;;;5.43;3.00;;;2.40;99.90;;;;;;5016165;28;20244;-73
2021/11/23 06:40:43;;;;;;;4.70;3.80;;;2.40;99.90;;;;;;5034047;28;20224;-72
2021/11/23 06:43:10;;;;;;;4.97;3.90;;;2.40;99.90;;;;;;5010740;28;20320;-73
2021/11/23 06:45:37;;;;;;;5.20;3.63;;;2.40;99.90;;;;;;5033417;28;20221;-72
2021/11/23 06:48:04;;;;;;;6.27;4.27;;;2.30;99.90;;;;;;5015235;28;20439;-72
2021/11/23 06:50:32;;;;;;;3.73;3.43;;;2.30;99.90;;;;;;5033430;28;20467;-72
2021/11/23 06:53:04;;;;;;;7.80;4.23;;;2.40;99.90;;;;;;5014680;28;20462;-71
2021/11/23 06:55:30;;;;;;;6.63;4.13;;;2.30;99.90;;;;;;5015786;28;20443;-73
2021/11/23 06:57:56;;;;;;;3.50;2.50;;;2.30;99.90;;;;;;5000695;28;20448;-73
2021/11/23 07:00:22;;;;;;;3.67;2.50;;;2.30;99.90;;;;;;5033366;28;20520;-72
2021/11/23 07:02:48;;;;;;;3.67;2.70;;;2.30;99.90;;;;;;5015192;28;21026;-73
2021/11/23 07:05:14;;;;;;;4.10;2.53;;;2.30;99.90;;;;;;5015069;28;20628;-72
2021/11/23 07:07:40;;;;;;;2.67;2.00;;;2.30;99.90;;;;;;4999103;28;20288;-71
2021/11/23 07:10:07;;;;;;;3.93;2.10;;;2.30;99.90;;;;;;5015072;28;20217;-70
2021/11/23 07:12:33;;;;;;;2.30;2.10;;;2.30;99.90;;;;;;5015503;28;20216;-72
2021/11/23 07:14:59;;;;;;;4.60;2.33;;;2.30;99.90;;;;;;4998355;28;20991;-71
2021/11/23 07:17:24;;;;;;;6.17;3.93;;;2.30;99.90;;;;;;5015673;28;20447;-72
2021/11/23 07:19:50;;;;;;;7.87;5.67;;;2.30;99.90;;;;;;4998818;28;20283;-72
2021/11/23 07:22:17;;;;;;;8.00;4.33;;;2.30;99.90;;;;;;5032264;28;20220;-71
2021/11/23 07:24:43;;;;;;;7.00;5.63;;;2.20;99.90;;;;;;5015241;28;20216;-71
2021/11/23 07:27:08;;;;;;;5.07;4.40;;;2.30;99.90;;;;;;5014603;28;20471;-72
2021/11/23 07:29:34;;;;;;;8.40;4.00;;;2.20;99.90;;;;;;5015105;28;20224;-73
2021/11/23 07:32:00;;;;;;;6.77;4.10;;;2.20;99.90;;;;;;4997809;28;20231;-72
2021/11/23 07:34:26;;;;;;;5.47;4.00;;;2.20;99.90;;;;;;5014982;28;20228;-72
2021/11/23 07:36:51;;;;;;;7.33;4.10;;;2.20;99.90;;;;;;5014721;28;20240;-73
2021/11/23 07:39:17;;;;;;;4.73;4.07;;;2.30;99.90;;;;;;4997698;28;20224;-72
2021/11/23 07:41:43;;;;;;;12.23;4.30;;;2.30;99.90;;;;;;5014434;28;20236;-71
2021/11/23 07:44:10;;;;;;;7.43;4.67;;;2.20;99.90;;;;;;4997775;28;20262;-72
2021/11/23 07:46:36;;;;;;;5.37;4.10;;;2.30;99.90;;;;;;5023578;28;20221;-72
2021/11/23 07:49:03;;;;;;;7.77;4.67;;;2.30;99.90;;;;;;5011531;28;20796;-71
2021/11/23 07:51:29;;;;;;;8.70;3.97;;;2.30;99.90;;;;;;5015592;28;20491;-73
2021/11/23 07:53:55;;;;;;;5.60;3.67;;;2.30;99.90;;;;;;4997461;28;20548;-72
2021/11/23 07:56:21;;;;;;;4.97;3.33;;;2.30;99.90;;;;;;5013878;28;20254;-72
2021/11/23 07:58:47;;;;;;;5.37;3.57;;;2.30;99.90;;;;;;5013671;28;20228;-73
2021/11/23 08:01:13;;;;;;;6.20;3.10;;;2.30;99.90;;;;;;5013923;28;20225;-72
2021/11/23 08:03:40;;;;;;;3.20;2.90;;;2.30;99.90;;;;;;5014010;28;20467;-72
2021/11/23 08:06:07;;;;;;;3.43;2.40;;;2.30;99.90;;;;;;5007869;28;20522;-72
2021/11/23 08:08:34;;;;;;;4.40;2.57;;;2.30;99.90;;;;;;5012561;28;20478;-73
2021/11/23 08:11:00;;;;;;;4.87;3.40;;;2.30;99.90;;;;;;5030825;28;20487;-72
2021/11/23 08:13:26;;;;;;;7.43;4.03;;;2.40;99.90;;;;;;5014184;28;20538;-73
2021/11/23 08:15:52;;;;;;;6.83;4.20;;;2.40;99.90;;;;;;5013880;28;20543;-73
2021/11/23 08:18:18;;;;;;;5.83;4.27;;;2.40;99.90;;;;;;5014424;28;20236;-73
2021/11/23 08:20:44;;;;;;;6.40;4.97;;;2.40;99.90;;;;;;4997556;28;20463;-73
2021/11/23 08:23:10;;;;;;;12.57;6.80;;;2.40;99.90;;;;;;5013540;28;20530;-73
2021/11/23 08:25:38;;;;;;;7.33;5.93;;;2.40;99.90;;;;;;5014080;28;20255;-73
2021/11/23 08:28:04;;;;;;;7.70;5.10;;;2.40;99.90;;;;;;5012642;28;20564;-73
2021/11/23 08:30:31;;;;;;;5.30;4.27;;;2.50;99.90;;;;;;5025756;28;20455;-73
2021/11/23 08:32:56;;;;;;;8.10;5.07;;;2.50;99.90;;;;;;5030549;28;21058;-72
2021/11/23 08:35:23;;;;;;;5.30;4.77;;;2.50;99.90;;;;;;4997428;28;20459;-73
2021/11/23 08:37:49;;;;;;;5.87;4.50;;;2.50;99.90;;;;;;5010496;28;20236;-73
2021/11/23 08:40:15;;;;;;;4.67;4.03;;;2.50;99.90;;;;;;5030922;28;20451;-73
2021/11/23 08:42:41;;;;;;;6.53;4.27;;;2.50;99.90;;;;;;5012046;28;20464;-72
2021/11/23 08:45:08;;;;;;;4.00;3.60;;;2.60;99.90;;;;;;5008032;28;20827;-73
2021/11/23 08:47:35;;;;;;;5.10;3.50;;;2.60;99.90;;;;;;5013881;28;20475;-73
2021/11/23 08:50:02;;;;;;;5.30;3.60;;;2.60;99.90;;;;;;5013373;28;20451;-73
2021/11/23 08:52:28;;;;;;;7.23;3.87;;;2.70;99.90;;;;;;5012841;28;20447;-72
2021/11/23 08:54:55;;;;;;;4.17;3.73;;;2.70;99.90;;;;;;5030465;28;20462;-74
2021/11/23 08:57:21;;;;;;;3.87;2.70;;;2.80;99.90;;;;;;5012726;28;20217;-74
2021/11/23 08:59:46;;;;;;;3.70;2.73;;;2.80;99.90;;;;;;5005350;28;20479;-73
2021/11/23 09:02:14;;;;;;;6.40;3.30;;;2.80;99.90;;;;;;5012736;28;20220;-73
2021/11/23 09:04:41;;;;;;;6.77;3.07;;;2.90;99.90;;;;;;5030807;28;20229;-73
2021/11/23 09:07:09;;;;;;;3.67;2.80;;;2.90;99.90;;;;;;5012497;28;20452;-73
2021/11/23 09:09:38;;;;;;;3.40;2.93;;;3.00;99.90;;;;;;5030955;28;20466;-73
2021/11/23 09:12:05;;;;;;;3.37;2.90;;;3.00;99.90;;;;;;5020928;28;21035;-73
2021/11/23 09:14:37;;;;;;;5.80;2.97;;;3.10;99.90;;;;;;5072403;27;21045;-71
2021/11/23 09:17:07;;;;;;;4.77;3.97;;;3.10;99.90;;;;;;5065443;28;20463;-71
2021/11/23 09:19:34;;;;;;;3.43;3.10;;;3.20;99.90;;;;;;5049823;28;20212;-72
2021/11/23 09:22:00;;;;;;;6.57;3.20;;;3.20;99.90;;;;;;5078959;28;20519;-71
2021/11/23 09:24:26;;;;;;;3.53;2.70;;;3.30;99.90;;;;;;5069428;28;21045;-71
2021/11/23 09:26:52;;;;;;;6.33;3.57;;;3.40;99.90;;;;;;5086017;28;20441;-72
2021/11/23 09:29:19;;;;;;;5.03;3.40;;;3.40;99.90;;;;;;5081819;28;20221;-72
2021/11/23 09:31:45;;;;;;;6.37;3.30;;;3.50;99.90;;;;;;5077584;28;20210;-72
2021/11/23 09:34:12;;;;;;;4.30;3.33;;;3.60;99.90;;;;;;5071852;28;20482;-72
2021/11/23 09:36:38;;;;;;;4.53;2.70;;;3.60;99.90;;;;;;5063363;28;20457;-71
2021/11/23 09:39:05;;;;;;;2.83;2.60;;;3.70;99.90;;;;;;5068037;28;20489;-70
2021/11/23 09:41:33;;;;;;;5.43;3.77;;;3.80;99.90;;;;;;5073137;28;20541;-72
2021/11/23 09:44:00;;;;;;;3.63;2.73;;;3.80;99.90;;;;;;5076721;28;21001;-71
2021/11/23 09:46:29;;;;;;;3.47;2.40;;;3.90;99.90;;;;;;5083994;28;20457;-72
2021/11/23 09:48:55;;;;;;;3.47;2.80;;;3.90;99.90;;;;;;5076221;28;21011;-73
2021/11/23 09:51:32;;;;;;;4.40;3.10;;;4.00;99.90;;;;;;5082630;28;20687;-72
2021/11/23 09:54:03;;;;;;;5.67;3.30;;;4.10;99.90;;;;;;5075743;28;20223;-71
2021/11/23 09:56:31;;;;;;;9.90;3.57;;;4.20;99.90;;;;;;5084841;28;20476;-74
2021/11/23 09:58:57;;;;;;;4.20;3.10;;;4.20;99.90;;;;;;5060382;28;20923;-72
2021/11/23 10:01:27;;;;;;;5.03;3.30;;;4.30;99.90;;;;;;5050780;28;20793;-71
2021/11/23 10:03:54;;;;;;;3.40;3.10;;;4.30;99.90;;;;;;5072757;28;20462;-72
2021/11/23 10:06:23;;;;;;;4.53;2.80;;;4.40;99.90;;;;;;5063705;28;20465;-72
2021/11/23 10:08:54;;;;;;;4.53;3.13;;;4.50;99.90;;;;;;5066094;28;20457;-72
2021/11/23 10:11:31;;;;;;;4.27;2.97;;;4.60;99.90;;;;;;5102785;28;20882;-71
2021/11/23 10:14:03;;;;;;;3.57;2.57;;;4.80;99.90;;;;;;5106275;28;20466;-72
2021/11/23 10:16:40;;;;;;;2.90;2.37;;;4.90;99.90;;;;;;5105881;28;20818;-72
2021/11/23 10:19:09;;;;;;;3.00;2.40;;;4.90;99.90;;;;;;5099712;28;20817;-71
2021/11/23 10:21:35;;;;;;;4.30;3.40;;;5.00;99.90;;;;;;5085535;28;20991;-71
2021/11/23 10:24:01;;;;;;;3.53;2.83;;;5.10;99.90;;;;;;5102552;28;20465;-72
2021/11/23 10:26:30;;;;;;;5.10;3.53;;;5.20;99.90;;;;;;5107994;28;20460;-71
2021/11/23 10:29:05;;;;;;;5.23;3.70;;;5.20;99.90;;;;;;5091554;28;20223;-71
2021/11/23 10:31:35;;;;;;;3.17;2.87;;;5.30;99.90;;;;;;5092060;28;20452;-72
2021/11/23 10:34:04;;;;;;;3.37;3.03;;;5.30;99.90;;;;;;5090798;28;20881;-72
2021/11/23 10:36:35;;;;;;;4.47;2.97;;;5.40;99.90;;;;;;5083295;28;20455;-71
2021/11/23 10:39:10;;;;;;;4.23;3.10;;;5.50;99.90;;;;;;5090645;28;20461;-72
2021/11/23 10:41:37;;;;;;;4.40;3.20;;;5.60;99.90;;;;;;5092016;28;20840;-71
2021/11/23 10:44:06;;;;;;;3.80;3.27;;;5.70;99.90;;;;;;5090882;28;20449;-71
2021/11/23 10:46:32;;;;;;;4.33;2.90;;;5.80;99.90;;;;;;5077589;28;20463;-72
2021/11/23 10:49:02;;;;;;;3.83;3.20;;;5.90;99.90;;;;;;5090788;28;20456;-70
2021/11/23 10:51:40;;;;;;;3.87;3.10;;;6.00;99.90;;;;;;5091570;28;20809;-71
2021/11/23 10:54:16;;;;;;;5.33;3.60;;;6.10;99.90;;;;;;5070498;28;20468;-71
2021/11/23 10:56:59;;;;;;;3.50;2.70;;;6.30;99.90;;;;;;5090086;28;20478;-71
2021/11/23 10:59:25;;;;;;;4.47;3.60;;;6.50;99.90;;;;;;5102346;28;20451;-71
2021/11/23 11:01:51;;;;;;;4.53;3.27;;;6.60;99.90;;;;;;5091289;28;20501;-72
2021/11/23 11:04:19;;;;;;;4.23;2.97;;;6.70;99.90;;;;;;5088637;28;20585;-72
2021/11/23 11:06:47;;;;;;;3.80;3.00;;;6.80;99.90;;;;;;5088123;28;20975;-72
2021/11/23 11:09:14;;;;;;;3.47;2.60;;;6.90;99.90;;;;;;5090973;28;20452;-72
2021/11/23 11:11:39;;;;;;;2.60;2.40;;;6.90;99.90;;;;;;5091417;28;20468;-70
2021/11/23 11:14:06;;;;;;;2.33;2.10;;;7.00;99.90;;;;;;5083770;28;20460;-71
2021/11/23 11:16:35;;;;;;;7.37;2.63;;;7.10;99.90;;;;;;5081368;28;20310;-71
2021/11/23 11:19:07;;;;;;;2.63;2.40;;;7.10;99.90;;;;;;5074166;28;20459;-71
2021/11/23 11:21:44;;;;;;;2.33;2.10;;;7.20;99.90;;;;;;5073432;28;20464;-72
2021/11/23 11:24:36;;;;;;;3.93;3.17;;;7.20;99.90;;;;;;5079947;28;20440;-71
2021/11/23 11:27:15;;;;;;;4.37;3.10;;;7.20;99.90;;;;;;5050293;28;20605;-70
2021/11/23 11:29:42;;;;;;;4.03;3.20;;;7.40;99.90;;;;;;5060646;28;20465;-71
2021/11/23 11:32:32;;;;;;;4.13;3.00;;;7.50;99.90;;;;;;5081368;28;21023;-71
2021/11/23 11:35:26;;;;;;;3.10;2.80;;;7.50;99.90;;;;;;5090958;28;20464;-70
2021/11/23 11:37:58;;;;;;;3.90;3.00;;;7.50;99.90;;;;;;5075979;28;20463;-71
2021/11/23 11:40:42;;;;;;;5.23;2.77;;;7.60;99.90;;;;;;5071579;28;20457;-70
2021/11/23 11:43:09;;;;;;;2.87;2.30;;;7.70;99.90;;;;;;5073053;28;20448;-70
2021/11/23 11:45:47;;;;;;;3.27;2.50;;;7.70;99.90;;;;;;5086915;28;20520;-73
2021/11/23 11:48:34;;;;;;;2.60;2.17;;;7.80;99.90;;;;;;5078069;28;20437;-71
2021/11/23 11:51:07;;;;;;;2.30;2.20;;;7.80;99.90;;;;;;5055241;28;21020;-71
2021/11/23 11:53:41;;;;;;;2.00;1.90;;;7.80;99.90;;;;;;5055417;28;20981;-71
2021/11/23 11:56:07;;;;;;;3.07;2.03;;;7.80;99.90;;;;;;5056063;28;20459;-72
2021/11/23 11:58:52;;;;;;;2.47;2.27;;;7.80;99.90;;;;;;5092364;28;20460;-71
2021/11/23 12:01:19;;;;;;;2.53;1.80;;;7.90;99.90;;;;;;5053892;28;20454;-72
2021/11/23 12:03:58;;;;;;;4.10;2.17;;;8.10;99.90;;;;;;5063897;28;20464;-71
2021/11/23 12:06:24;;;;;;;2.30;2.00;;;8.10;99.90;;;;;;5082430;28;20444;-71
2021/11/23 12:08:55;;;;;;;3.97;2.77;;;8.10;99.90;;;;;;5074021;28;20473;-72
2021/11/23 12:11:29;;;;;;;3.67;2.50;;;8.10;99.90;;;;;;5069641;28;20229;-71
2021/11/23 12:14:01;;;;;;;5.63;2.30;;;8.10;99.90;;;;;;5072337;28;20517;-71
2021/11/23 12:16:29;;;;;;;2.80;1.37;;;8.10;99.90;;;;;;5055516;28;20463;-71
2021/11/23 12:19:11;;;;;;;1.57;1.47;;;8.10;99.90;;;;;;5078357;28;20459;-71
2021/11/23 12:21:52;;;;;;;1.67;1.57;;;8.00;99.90;;;;;;5045970;28;20996;-70
2021/11/23 12:24:25;;;;;;;1.20;1.10;;;7.80;99.90;;;;;;5057527;28;20454;-71
2021/11/23 12:26:54;;;;;;;2.80;2.60;;;7.80;99.90;;;;;;5056360;28;20868;-71
2021/11/23 12:29:26;;;;;;;4.60;3.30;;;7.90;99.90;;;;;;5041968;28;20450;-71
2021/11/23 12:31:52;;;;;;;4.67;3.20;;;7.90;99.90;;;;;;5058755;28;20468;-71
2021/11/23 12:34:19;;;;;;;11.10;4.70;;;8.10;99.90;;;;;;5033087;28;20465;-72
2021/11/23 12:36:44;;;;;;;7.10;3.93;;;8.10;99.90;;;;;;5077321;28;20216;-71
2021/11/23 12:39:14;;;;;;;4.77;3.20;;;8.20;99.90;;;;;;5063169;28;20502;-71
2021/11/23 12:41:42;;;;;;;3.67;2.50;;;8.20;99.90;;;;;;5075817;28;20227;-71
2021/11/23 12:44:23;;;;;;;2.80;2.00;;;8.20;99.90;;;;;;5044040;28;20470;-71
2021/11/23 12:46:58;;;;;;;8.00;2.80;;;8.20;99.90;;;;;;5049129;28;20462;-71
2021/11/23 12:49:24;;;;;;;2.27;1.80;;;8.20;99.90;;;;;;5089421;28;20527;-71
2021/11/23 12:51:58;;;;;;;1.93;1.67;;;8.20;99.90;;;;;;5085884;28;20531;-72
2021/11/23 12:54:26;;;;;;;1.73;1.60;;;8.10;99.90;;;;;;5061390;28;20235;-71
2021/11/23 12:57:06;;;;;;;2.50;1.53;;;8.10;99.90;;;;;;5048509;28;20831;-71
2021/11/23 12:59:52;;;;;;;2.13;1.30;;;8.00;99.90;;;;;;5087601;28;20585;-70
2021/11/23 13:02:24;;;;;;;2.83;1.67;;;7.90;99.90;;;;;;5089122;28;20947;-71